Time;durP1;ratioP1;P1;durP2;ratioP2;P2;SDS_P1;SDS_P2;PMS_P1;PMS_P2;Temp;Humidity;BMP_temperature;BMP_pressure;BME280_temperature;BME280_humidity;BME280_pressure;Samples;Min_cycle;Max_cycle;Signal;HPM_P1;HPM_P2
2023/09/06 00:00:28;;;;;;;4.47;3.30;;;;;;;18.21;100.00;63517.47;6241569;23;20070;-74
2023/09/06 00:02:54;;;;;;;6.30;3.03;;;;;;;18.17;100.00;62810.47;6242982;23;20010;-73
2023/09/06 00:05:19;;;;;;;10.98;3.28;;;;;;;18.16;100.00;64918.94;6241621;23;20046;-73
2023/09/06 00:07:45;;;;;;;6.37;3.63;;;;;;;18.11;100.00;64561.78;6241804;23;20008;-73
2023/09/06 00:10:10;;;;;;;9.50;3.30;;;;;;;18.10;100.00;65264.69;6242285;23;20012;-72
2023/09/06 00:12:36;;;;;;;3.63;3.30;;;;;;;18.07;100.00;64909.13;6241836;23;20307;-73
2023/09/06 00:15:03;;;;;;;6.33;3.80;;;;;;;18.04;100.00;58931.44;6242697;23;20636;-73
2023/09/06 00:17:28;;;;;;;8.40;3.40;;;;;;;18.02;100.00;56823.53;6213838;23;20008;-72
2023/09/06 00:19:54;;;;;;;7.87;2.80;;;;;;;18.00;100.00;56119.75;6215587;23;20346;-73
2023/09/06 00:22:20;;;;;;;6.20;3.10;;;;;;;18.02;100.00;55419.38;6240942;23;20008;-73
2023/09/06 00:24:46;;;;;;;6.93;3.33;;;;;;;17.99;100.00;56118.31;6215778;23;20000;-73
2023/09/06 00:27:11;;;;;;;3.85;3.45;;;;;;;17.97;100.00;57169.69;6240892;23;20019;-73
2023/09/06 00:29:36;;;;;;;8.83;3.73;;;;;;;17.95;100.00;53308.56;6242212;23;20027;-73
2023/09/06 00:32:02;;;;;;;6.17;3.20;;;;;;;17.93;100.00;52605.59;6241209;23;20011;-72
2023/09/06 00:34:28;;;;;;;5.95;3.15;;;;;;;17.89;100.00;53303.59;6215360;23;20081;-72
2023/09/06 00:36:54;;;;;;;8.33;3.53;;;;;;;17.90;100.00;50850.63;6242788;23;20047;-74
2023/09/06 00:39:19;;;;;;;4.18;3.00;;;;;;;17.88;100.00;50848.94;6244861;23;20048;-73
2023/09/06 00:41:45;;;;;;;5.03;3.27;;;;;;;17.84;100.00;49094.56;6244154;23;20038;-73
2023/09/06 00:44:10;;;;;;;7.57;3.47;;;;;;;17.84;100.00;45944.13;6244719;23;20051;-72
2023/09/06 00:46:36;;;;;;;11.67;4.20;;;;;;;17.78;100.00;45939.03;6243387;23;20004;-72
2023/09/06 00:49:02;;;;;;;5.32;3.60;;;;;;;17.77;100.00;42790.69;6217216;23;20099;-72
2023/09/06 00:51:28;;;;;;;6.93;3.47;;;;;;;17.76;100.00;42790.34;6244383;23;20042;-73
2023/09/06 00:53:54;;;;;;;9.15;3.08;;;;;;;17.76;100.00;44888.03;6217571;23;20008;-73
2023/09/06 00:56:20;;;;;;;6.55;3.80;;;;;;;17.72;100.00;45584.53;6244988;23;20075;-72
2023/09/06 00:58:46;;;;;;;6.60;3.23;;;;;;;17.73;100.00;42088.72;6244742;23;20080;-72
2023/09/06 01:01:11;;;;;;;6.00;3.70;;;;;;;17.65;100.00;43830.66;6243063;23;20426;-73
2023/09/06 01:03:40;;;;;;;10.57;3.37;;;;;;;17.64;100.00;46277.94;6243655;23;20000;-73
2023/09/06 01:06:14;;;;;;;4.30;3.47;;;;;;;17.60;100.00;43128.19;6244200;23;20465;-73
2023/09/06 01:08:40;;;;;;;7.15;3.67;;;;;;;17.59;100.00;39982.69;6242870;23;20016;-73
2023/09/06 01:11:23;;;;;;;8.07;3.73;;;;;;;17.55;100.00;40678.47;6217178;23;20499;-73
2023/09/06 01:13:54;;;;;;;7.95;4.00;;;;;;;17.51;100.00;41723.94;6216587;23;20082;-73
2023/09/06 01:16:29;;;;;;;6.53;3.40;;;;;;;17.54;100.00;40328.84;6243161;23;20320;-73
2023/09/06 01:18:55;;;;;;;4.70;3.90;;;;;;;17.50;100.00;39278.56;6243074;23;20006;-73
2023/09/06 01:21:25;;;;;;;6.50;3.72;;;;;;;17.44;100.00;37529.16;6243187;23;20027;-73
2023/09/06 01:23:51;;;;;;;4.00;3.60;;;;;;;17.42;100.00;37527.88;6244339;23;20060;-73
2023/09/06 01:26:18;;;;;;;5.93;3.58;;;;;;;17.42;100.00;36132.72;6243603;23;20338;-73
2023/09/06 01:28:44;;;;;;;3.60;3.17;;;;;;;17.40;100.00;36480.28;6242803;23;20035;-74
2023/09/06 01:31:09;;;;;;;7.20;3.93;;;;;;;17.38;100.00;37525.63;6242627;23;20414;-73
2023/09/06 01:33:35;;;;;;;6.80;3.33;;;;;;;17.35;100.00;36825.97;6243280;23;20004;-73
2023/09/06 01:36:00;;;;;;;4.67;3.63;;;;;;;17.37;100.00;35780.53;6242609;23;20003;-73
2023/09/06 01:38:26;;;;;;;5.27;3.73;;;;;;;17.36;100.00;36129.00;6243435;23;20008;-73
2023/09/06 01:40:53;;;;;;;8.30;3.63;;;;;;;17.36;100.00;38221.84;6243975;23;20079;-73
2023/09/06 01:43:19;;;;;;;5.45;3.80;;;;;;;17.37;100.00;37873.88;6243699;23;20381;-73
2023/09/06 01:45:50;;;;;;;9.13;3.67;;;;;;;17.35;100.00;37872.25;6242433;23;19996;-74
2023/09/06 01:48:16;;;;;;;5.65;3.70;;;;;;;17.36;100.00;34733.88;6242451;23;20008;-73
2023/09/06 01:50:41;;;;;;;8.10;4.33;;;;;;;17.32;100.00;33337.25;6242166;23;20422;-73
2023/09/06 01:53:07;;;;;;;4.70;3.77;;;;;;;17.30;100.00;31594.34;6243305;23;20010;-73
2023/09/06 01:55:32;;;;;;;3.57;3.20;;;;;;;17.28;100.00;33683.72;6243373;23;20083;-72
2023/09/06 01:57:58;;;;;;;6.97;4.13;;;;;;;17.34;100.00;32641.44;6216542;23;20000;-73
2023/09/06 02:00:32;;;;;;;9.40;3.83;;;;;;;17.31;100.00;30898.28;6242044;23;20448;-73
2023/09/06 02:03:00;;;;;;;5.10;3.78;;;;;;;17.30;100.00;31246.03;6242652;23;20007;-73
2023/09/06 02:05:26;;;;;;;5.30;4.00;;;;;;;17.28;100.00;32986.50;6242655;23;20422;-73
2023/09/06 02:07:51;;;;;;;4.37;3.50;;;;;;;17.25;100.00;33333.53;6243314;23;20192;-73
2023/09/06 02:10:17;;;;;;;4.53;3.80;;;;;;;17.27;100.00;32637.50;6243776;23;20389;-73
2023/09/06 02:12:43;;;;;;;7.50;4.47;;;;;;;17.29;100.00;31593.53;6243801;23;20054;-73
2023/09/06 02:15:09;;;;;;;10.00;4.65;;;;;;;17.31;100.00;30550.03;6215911;23;20054;-71
2023/09/06 02:17:35;;;;;;;6.97;4.72;;;;;;;17.38;100.00;29856.94;6242795;23;19996;-71
2023/09/06 02:20:12;;;;;;;11.60;4.32;;;;;;;17.38;100.00;30553.72;6243278;23;20000;-72
2023/09/06 02:22:39;;;;;;;5.03;4.53;;;;;;;17.43;100.00;30904.69;6243280;23;20046;-73
2023/09/06 02:25:06;;;;;;;4.70;4.13;;;;;;;17.46;100.00;32648.47;6243355;23;19996;-73
2023/09/06 02:27:31;;;;;;;6.40;4.40;;;;;;;17.45;100.00;34739.25;6243202;23;20008;-72
2023/09/06 02:29:57;;;;;;;5.40;4.00;;;;;;;17.44;100.00;35436.41;6243567;23;20004;-73
2023/09/06 02:32:24;;;;;;;8.33;3.90;;;;;;;17.48;100.00;35787.31;6215982;23;20004;-71
2023/09/06 02:34:50;;;;;;;6.82;3.83;;;;;;;17.42;100.00;37876.81;6243716;23;20377;-74
2023/09/06 02:37:15;;;;;;;5.73;4.10;;;;;;;17.43;100.00;37179.59;6242941;23;20007;-74
2023/09/06 02:39:40;;;;;;;8.30;4.07;;;;;;;17.41;100.00;35085.84;6215933;23;20318;-73
2023/09/06 02:42:06;;;;;;;8.73;4.30;;;;;;;17.44;100.00;36133.66;6243688;23;20024;-74
2023/09/06 02:44:31;;;;;;;7.73;4.17;;;;;;;17.42;100.00;37527.88;6242567;23;20007;-73
2023/09/06 02:46:57;;;;;;;9.53;3.93;;;;;;;17.42;100.00;37527.88;6243574;23;20000;-73
2023/09/06 02:49:26;;;;;;;8.93;3.90;;;;;;;17.36;100.00;37873.22;6242585;23;20004;-74
2023/09/06 02:51:51;;;;;;;5.55;4.03;;;;;;;17.32;100.00;37521.44;6243468;23;20004;-73
2023/09/06 02:54:17;;;;;;;8.63;4.00;;;;;;;17.28;100.00;36123.75;6243224;23;20011;-73
2023/09/06 02:56:45;;;;;;;5.20;3.97;;;;;;;17.25;100.00;35773.19;6243675;23;20000;-73
2023/09/06 02:59:14;;;;;;;6.25;4.03;;;;;;;17.23;100.00;36120.94;6215509;23;20046;-73
2023/09/06 03:01:44;;;;;;;7.03;4.47;;;;;;;17.19;100.00;36815.56;6242413;23;20034;-73
2023/09/06 03:04:13;;;;;;;10.20;4.20;;;;;;;17.14;100.00;36812.41;6243285;23;20465;-73
2023/09/06 03:06:38;;;;;;;4.78;4.28;;;;;;;17.13;100.00;37509.25;6215563;23;20004;-71
2023/09/06 03:09:07;;;;;;;5.43;4.60;;;;;;;17.08;100.00;34020.28;6242774;23;20414;-73
2023/09/06 03:11:32;;;;;;;4.57;3.70;;;;;;;17.05;100.00;30188.22;6242206;23;20008;-74
2023/09/06 03:13:58;;;;;;;4.20;3.77;;;;;;;17.04;100.00;29839.63;6242930;23;20418;-73
2023/09/06 03:16:23;;;;;;;5.30;3.57;;;;;;;17.01;100.00;29489.84;6242854;23;20004;-73
2023/09/06 03:18:54;;;;;;;6.73;4.37;;;;;;;16.99;100.00;27054.03;6215783;23;20008;-73
2023/09/06 03:21:19;;;;;;;6.60;4.07;;;;;;;16.92;100.00;24964.78;6214965;23;19999;-72
2023/09/06 03:23:45;;;;;;;7.90;4.53;;;;;;;16.92;100.00;23922.34;6243292;23;20000;-73
2023/09/06 03:26:12;;;;;;;8.10;4.20;;;;;;;16.92;100.00;24964.78;6242900;23;20008;-73
2023/09/06 03:28:40;;;;;;;6.18;4.38;;;;;;;16.90;100.00;25311.44;6243189;23;20023;-73
2023/09/06 03:31:08;;;;;;;8.93;4.53;;;;;;;16.90;100.00;22185.00;6242813;23;20011;-71
2023/09/06 03:33:35;;;;;;;8.43;4.65;;;;;;;16.89;100.00;22184.59;6241070;23;20011;-72
2023/09/06 03:36:01;;;;;;;;;;;;;;;16.88;100.00;21142.38;6242504;23;20004;-73
2023/09/06 03:38:27;;;;;;;8.80;4.65;;;;;;;16.83;100.00;19752.22;6241328;23;20037;-73
2023/09/06 03:40:53;;;;;;;9.40;4.55;;;;;;;16.79;100.00;22180.47;6215710;23;20028;-73
2023/09/06 03:43:29;;;;;;;13.30;4.63;;;;;;;16.79;100.00;22180.47;6241742;23;20008;-73
2023/09/06 03:45:58;;;;;;;9.40;4.60;;;;;;;16.74;100.00;23220.19;6242199;23;20330;-73
2023/09/06 03:48:25;;;;;;;5.13;4.25;;;;;;;16.73;100.00;23220.00;6241761;23;20509;-73
2023/09/06 03:50:53;;;;;;;9.57;4.80;;;;;;;16.72;100.00;24608.66;6216022;23;20022;-73
2023/09/06 03:53:19;;;;;;;6.95;4.90;;;;;;;16.69;100.00;23912.91;6241965;23;20004;-73
2023/09/06 03:55:47;;;;;;;15.10;4.77;;;;;;;16.69;100.00;23565.41;6215011;23;20011;-74
2023/09/06 03:58:13;;;;;;;6.43;4.97;;;;;;;16.68;100.00;20787.84;6241396;23;20422;-74
2023/09/06 04:00:45;;;;;;;8.57;6.60;;;;;;;16.66;100.00;21134.16;6242407;23;20000;-73
2023/09/06 04:03:11;;;;;;;7.60;6.00;;;;;;;16.66;100.00;19746.41;6242217;23;20008;-73
2023/09/06 04:05:37;;;;;;;9.90;5.50;;;;;;;16.63;100.00;19398.47;6214912;23;20000;-73
2023/09/06 04:08:09;;;;;;;12.67;7.17;;;;;;;16.59;100.00;19050.09;6215414;23;20008;-73
2023/09/06 04:10:38;;;;;;;10.88;6.10;;;;;;;16.59;100.00;20437.75;6240588;23;20035;-74
2023/09/06 04:13:09;;;;;;;6.63;4.93;;;;;;;16.58;100.00;19049.75;6242542;22;20446;-73
2023/09/06 04:15:35;;;;;;;6.38;5.28;;;;;;;16.54;100.00;20435.94;6239675;23;20012;-75
2023/09/06 04:18:02;;;;;;;10.70;5.22;;;;;;;16.54;100.00;19048.38;6240920;23;20000;-73
2023/09/06 04:20:31;;;;;;;12.38;5.80;;;;;;;16.49;100.00;19740.44;6241705;22;20004;-73
2023/09/06 04:22:57;;;;;;;10.30;5.63;;;;;;;16.49;100.00;18699.94;6241754;22;20004;-73
2023/09/06 04:25:23;;;;;;;;;;;;;;;16.48;100.00;18353.06;6242691;22;20433;-73
2023/09/06 04:27:54;;;;;;;11.82;5.03;;;;;;;16.46;100.00;17312.50;6242674;22;19978;-73
2023/09/06 04:30:25;;;;;;;6.82;4.90;;;;;;;16.45;100.00;18351.91;6240109;23;20008;-73
2023/09/06 04:32:54;;;;;;;6.95;4.72;;;;;;;16.44;100.00;17658.47;6243078;22;20464;-73
2023/09/06 04:35:22;;;;;;;9.02;5.20;;;;;;;16.43;100.00;16964.84;6241149;23;20019;-73
2023/09/06 04:37:47;;;;;;;9.93;4.63;;;;;;;16.40;100.00;17310.47;6242330;22;20008;-73
2023/09/06 04:40:13;;;;;;;8.27;4.97;;;;;;;16.38;100.00;14192.38;6243141;22;20051;-74
2023/09/06 04:42:42;;;;;;;7.35;4.93;;;;;;;16.38;100.00;14884.81;6243324;22;20000;-73
2023/09/06 04:45:11;;;;;;;7.10;4.93;;;;;;;16.37;100.00;13499.66;6242363;22;20385;-73
2023/09/06 04:47:42;;;;;;;8.73;5.63;;;;;;;16.39;100.00;12807.69;6243116;22;20000;-73
2023/09/06 04:50:08;;;;;;;8.10;4.60;;;;;;;16.33;100.00;12806.25;6242377;22;20009;-74
2023/09/06 04:52:44;;;;;;;5.67;4.77;;;;;;;16.35;100.00;11768.50;6242420;22;20014;-75
2023/09/06 04:55:10;;;;;;;9.38;5.00;;;;;;;16.31;100.00;12113.75;6245365;23;20011;-76
2023/09/06 04:57:38;;;;;;;;;;;;;;;16.34;100.00;11768.28;6249402;22;20007;-76
2023/09/06 06:50:09;;;;;;;10.63;6.10;;;;;;;19.27;100.00;67155.19;6199486;22;20020;-72
2023/09/06 06:52:36;;;;;;;14.57;6.93;;;;;;;19.43;100.00;69996.31;6212486;23;20478;-73
2023/09/06 06:55:01;;;;;;;9.30;6.22;;;;;;;19.54;100.00;73893.59;6210649;23;20028;-75
2023/09/06 06:57:26;;;;;;;11.77;6.07;;;;;;;19.70;100.00;79926.44;6209764;23;20004;-73
2023/09/06 06:59:52;;;;;;;10.47;6.83;;;;;;;19.81;100.00;82420.16;6211653;23;20004;-76
2023/09/06 07:02:17;;;;;;;17.30;5.83;;;;;;;19.94;100.00;79604.41;6212016;23;20005;-73
2023/09/06 07:04:43;;;;;;;9.00;6.07;;;;;;;20.27;100.00;83547.28;6211381;23;19997;-73
2023/09/06 07:07:08;;;;;;;9.20;5.57;;;;;;;21.05;100.00;102519.16;6211881;23;20084;-74
2023/09/06 07:09:34;;;;;;;12.83;5.93;;;;;;;21.74;100.00;151022.13;6211166;23;20276;-76
2023/09/06 07:11:59;;;;;;;10.37;5.50;;;;;;;22.22;100.00;157046.63;6211319;23;20027;-75
2023/09/06 07:14:24;;;;;;;14.37;5.60;;;;;;;22.73;100.00;157179.97;6183179;23;20058;-76
2023/09/06 07:16:50;;;;;;;10.97;5.17;;;;;;;23.03;100.00;157258.34;6212087;23;20008;-74
2023/09/06 07:19:15;;;;;;;7.53;5.13;;;;;;;23.39;100.00;157352.53;6184048;23;20324;-75
2023/09/06 07:21:42;;;;;;;8.83;5.43;;;;;;;23.72;100.00;157438.81;6212053;23;20004;-73
2023/09/06 07:24:09;;;;;;;9.70;5.30;;;;;;;23.91;100.00;157489.88;6210421;23;20020;-73
2023/09/06 07:26:35;;;;;;;11.20;5.00;;;;;;;23.99;100.00;157509.50;6184337;23;20101;-76
2023/09/06 07:29:01;;;;;;;10.02;5.22;;;;;;;24.11;100.00;157540.91;6211127;23;20060;-74
2023/09/06 07:31:26;;;;;;;9.57;5.10;;;;;;;24.13;100.00;157546.13;6210787;23;20031;-74
2023/09/06 07:33:52;;;;;;;11.40;5.10;;;;;;;24.09;100.00;157536.97;6211244;23;20050;-74
2023/09/06 07:36:18;;;;;;;8.52;4.93;;;;;;;24.05;100.00;157525.19;6184001;23;20015;-76
2023/09/06 07:38:44;;;;;;;9.32;4.47;;;;;;;24.22;100.00;157569.69;6209862;23;20172;-75
2023/09/06 07:41:09;;;;;;;5.67;3.80;;;;;;;24.04;100.00;157522.56;6211223;23;20060;-73
2023/09/06 07:43:37;;;;;;;14.40;5.07;;;;;;;24.14;100.00;157548.75;6210473;23;20058;-74
2023/09/06 07:46:03;;;;;;;13.32;4.60;;;;;;;23.82;100.00;157466.31;6211480;23;20001;-76
2023/09/06 07:48:30;;;;;;;6.25;3.90;;;;;;;24.15;100.00;157551.34;6182977;23;20352;-75
2023/09/06 07:50:58;;;;;;;11.43;4.78;;;;;;;23.76;100.00;157449.28;6210755;23;20044;-75
2023/09/06 07:53:26;;;;;;;14.70;4.63;;;;;;;23.53;100.00;157390.44;6210772;23;20030;-75
2023/09/06 07:55:52;;;;;;;11.10;5.00;;;;;;;23.46;100.00;157372.16;6210766;23;20004;-76
2023/09/06 07:58:17;;;;;;;10.63;5.00;;;;;;;23.26;100.00;157319.84;6210512;23;20001;-75
2023/09/06 08:00:43;;;;;;;13.30;5.03;;;;;;;23.22;100.00;157308.09;6211113;23;20016;-74
2023/09/06 08:03:10;;;;;;;9.88;4.90;;;;;;;23.21;100.00;157305.50;6208769;23;20032;-75
2023/09/06 08:05:36;;;;;;;10.02;5.15;;;;;;;23.20;100.00;157304.16;6184368;23;20339;-75
2023/09/06 08:08:02;;;;;;;7.80;5.30;;;;;;;23.18;100.00;157298.97;6184493;23;20007;-75
2023/09/06 08:10:28;;;;;;;9.90;5.18;;;;;;;23.18;100.00;157298.97;6210401;23;20079;-76
2023/09/06 08:12:53;;;;;;;9.60;5.13;;;;;;;23.25;100.00;157315.91;6211756;23;20089;-75
2023/09/06 08:15:18;;;;;;;11.43;5.40;;;;;;;23.36;100.00;157346.00;6210998;23;20087;-75
2023/09/06 08:17:47;;;;;;;9.27;5.87;;;;;;;23.32;100.00;157334.25;6211568;23;20362;-74
2023/09/06 08:20:14;;;;;;;9.75;5.53;;;;;;;23.45;100.00;157368.22;6209625;23;20023;-75
2023/09/06 08:22:40;;;;;;;11.93;5.90;;;;;;;23.46;100.00;157372.16;6211164;23;20000;-75
2023/09/06 08:25:06;;;;;;;21.80;5.75;;;;;;;23.52;100.00;157386.56;6208925;23;20299;-75
2023/09/06 08:27:32;;;;;;;7.22;5.07;;;;;;;23.65;100.00;157420.53;6208536;23;20008;-75
2023/09/06 08:29:58;;;;;;;13.57;5.93;;;;;;;23.76;100.00;157450.63;6183002;23;20563;-75
2023/09/06 08:32:23;;;;;;;10.23;5.45;;;;;;;23.81;100.00;157463.72;6211024;23;20004;-75
2023/09/06 08:34:49;;;;;;;8.87;5.63;;;;;;;23.94;100.00;157497.75;6209258;23;20475;-74
2023/09/06 08:37:14;;;;;;;12.20;5.80;;;;;;;24.02;100.00;157518.63;6209669;23;20079;-75
2023/09/06 08:39:40;;;;;;;23.70;5.63;;;;;;;24.09;100.00;157535.66;6210764;23;20009;-75
2023/09/06 08:42:06;;;;;;;15.43;6.00;;;;;;;24.17;100.00;157557.88;6185519;23;20020;-75
2023/09/06 08:44:32;;;;;;;7.97;5.60;;;;;;;24.30;100.00;157590.59;6210740;23;20035;-75
2023/09/06 08:47:01;;;;;;;12.63;6.68;;;;;;;24.46;100.00;157632.47;6184975;23;20001;-76
2023/09/06 08:49:27;;;;;;;12.68;5.50;;;;;;;24.55;100.00;157657.31;6210336;23;20057;-75
2023/09/06 08:51:55;;;;;;;10.70;5.05;;;;;;;24.68;100.00;157690.09;6211666;23;20039;-75
2023/09/06 08:54:23;;;;;;;10.18;4.68;;;;;;;24.87;100.00;157741.13;6184454;23;20103;-76
2023/09/06 08:56:50;;;;;;;16.83;4.75;;;;;;;24.97;100.00;157766.00;6212480;23;20008;-75
2023/09/06 08:59:17;;;;;;;8.38;4.65;;;;;;;25.19;100.00;157823.59;6212640;23;20091;-73
2023/09/06 09:01:42;;;;;;;12.05;4.80;;;;;;;25.29;100.00;157849.84;6185905;23;20000;-74
2023/09/06 09:04:09;;;;;;;12.50;4.10;;;;;;;25.33;100.00;157861.59;6185759;23;20087;-73
2023/09/06 09:06:34;;;;;;;9.18;3.80;;;;;;;25.50;100.00;157904.84;6209984;23;20441;-74
2023/09/06 09:09:13;;;;;;;7.40;4.27;;;;;;;25.70;100.00;157957.16;6212272;23;20084;-72
2023/09/06 09:11:43;;;;;;;11.27;3.80;;;;;;;25.90;100.00;158009.56;6209374;23;20074;-72
2023/09/06 09:14:21;;;;;;;5.65;4.03;;;;;;;26.03;100.00;158044.97;6182789;23;20008;-71
2023/09/06 09:16:57;;;;;;;14.57;4.50;;;;;;;26.22;100.00;158094.78;6184687;23;20043;-72
2023/09/06 09:19:23;;;;;;;9.40;3.65;;;;;;;26.12;100.00;158067.25;6211144;23;20008;-72
2023/09/06 09:21:55;;;;;;;14.10;4.90;;;;;;;26.29;100.00;158111.78;6183905;23;20008;-73
2023/09/06 09:24:25;;;;;;;7.20;3.75;;;;;;;26.59;100.00;158190.44;6179927;23;20429;-72
2023/09/06 09:26:51;;;;;;;7.25;3.40;;;;;;;26.65;100.00;158206.16;6211507;23;20320;-72
2023/09/06 09:29:16;;;;;;;13.27;3.97;;;;;;;26.77;100.00;158238.94;6212313;23;20103;-72
2023/09/06 09:31:42;;;;;;;10.13;4.10;;;;;;;26.96;100.00;158288.75;6213201;23;20119;-72
2023/09/06 09:34:07;;;;;;;11.00;3.60;;;;;;;27.01;100.00;158301.88;6212474;23;20059;-72
2023/09/06 09:36:34;;;;;;;6.90;4.00;;;;;;;26.72;100.00;158225.81;6211289;23;20008;-71
2023/09/06 09:39:06;;;;;;;7.57;3.38;;;;;;;27.12;100.00;158329.38;6210694;23;20067;-72
2023/09/06 09:41:32;;;;;;;9.50;3.88;;;;;;;27.34;100.00;158388.41;6212114;23;20702;-72
2023/09/06 09:44:16;;;;;;;6.67;4.30;;;;;;;27.32;100.00;158383.16;6211531;23;20004;-72
2023/09/06 09:46:43;;;;;;;15.20;3.72;;;;;;;27.45;100.00;158415.94;6211744;23;20031;-72
2023/09/06 09:49:10;;;;;;;13.50;3.88;;;;;;;27.66;100.00;158471.00;6210873;23;20000;-72
2023/09/06 09:51:38;;;;;;;9.50;3.65;;;;;;;27.74;100.00;158493.28;6212350;23;20340;-72
2023/09/06 09:54:05;;;;;;;6.90;3.15;;;;;;;27.93;100.00;158541.84;6212132;23;20063;-72
2023/09/06 09:56:33;;;;;;;5.38;3.25;;;;;;;28.06;100.00;158577.25;6212254;23;20378;-72
2023/09/06 09:59:01;;;;;;;13.18;3.90;;;;;;;28.01;100.00;158562.88;6212427;23;20080;-73
2023/09/06 10:01:31;;;;;;;6.90;3.30;;;;;;;28.20;100.00;158614.00;6210912;23;20465;-72
2023/09/06 10:03:57;;;;;;;4.43;2.95;;;;;;;28.45;100.00;158678.34;6211338;23;20062;-71
2023/09/06 10:06:26;;;;;;;6.18;3.10;;;;;;;28.55;100.00;158704.59;6185425;23;20011;-71
2023/09/06 10:08:55;;;;;;;12.52;3.42;;;;;;;28.61;100.00;158720.31;6185448;23;20016;-72
2023/09/06 10:11:21;;;;;;;9.43;3.50;;;;;;;28.72;100.00;158750.50;6210690;23;20016;-72
2023/09/06 10:13:49;;;;;;;4.22;2.50;;;;;;;28.69;100.00;158742.63;6210926;23;20283;-72
2023/09/06 10:16:15;;;;;;;4.95;2.80;;;;;;;28.59;100.00;158715.09;6211548;23;20486;-72
2023/09/06 10:18:41;;;;;;;;;;;;;;;28.96;100.00;158812.19;6186060;23;20012;-72
2023/09/06 10:21:07;;;;;;;5.28;2.42;;;;;;;28.96;100.00;158812.19;6211689;23;19908;-72
2023/09/06 10:23:43;;;;;;;7.28;2.30;;;;;;;29.12;100.00;158854.25;6211026;23;20008;-72
2023/09/06 10:26:09;;;;;;;5.75;2.42;;;;;;;29.26;100.00;158892.28;6211336;23;19997;-72
2023/09/06 10:28:34;;;;;;;8.27;2.53;;;;;;;29.33;100.00;158909.31;6209282;23;20023;-72
2023/09/06 10:31:07;;;;;;;9.43;2.70;;;;;;;29.42;100.00;158934.31;6210366;23;20419;-72
2023/09/06 10:33:47;;;;;;;12.60;3.83;;;;;;;29.47;100.00;158946.09;6212173;23;20011;-72
2023/09/06 10:36:13;;;;;;;5.57;2.60;;;;;;;29.54;100.00;158964.53;6212339;23;20027;-72
2023/09/06 10:38:51;;;;;;;13.30;3.13;;;;;;;29.48;100.00;158948.72;6211127;23;20001;-72
2023/09/06 10:41:18;;;;;;;8.57;2.47;;;;;;;29.69;100.00;159005.25;6184592;23;20012;-72
2023/09/06 10:43:55;;;;;;;7.32;2.42;;;;;;;29.80;100.00;159032.78;6182248;23;20447;-72
2023/09/06 10:46:26;;;;;;;10.93;2.90;;;;;;;29.79;100.00;159031.50;6186073;23;20320;-72
2023/09/06 10:49:25;;;;;;;10.18;2.60;;;;;;;29.93;100.00;159068.25;6184434;23;20011;-72
2023/09/06 10:52:03;;;;;;;5.10;3.20;;;;;;;29.93;100.00;159068.25;6145368;23;20031;-72
2023/09/06 10:54:34;;;;;;;12.00;3.33;;;;;;;30.07;100.00;159103.72;6210842;23;20015;-73
2023/09/06 10:57:05;;;;;;;9.88;3.35;;;;;;;30.23;100.00;159145.78;6212970;23;20508;-71
2023/09/06 10:59:32;;;;;;;4.93;3.15;;;;;;;30.24;100.00;159149.72;6210953;23;20510;-72
2023/09/06 11:02:18;;;;;;;8.15;3.05;;;;;;;30.37;100.00;159183.91;6185034;23;20492;-72
2023/09/06 11:04:44;;;;;;;7.35;3.35;;;;;;;30.32;100.00;159169.44;6189676;23;20047;-73
2023/09/06 11:07:10;;;;;;;10.02;3.42;;;;;;;30.21;100.00;159141.88;6210712;23;20007;-72
2023/09/06 11:09:37;;;;;;;;;;;;;;;30.55;100.00;159231.19;6210883;23;20009;-73
2023/09/06 11:12:04;;;;;;;12.05;3.55;;;;;;;30.61;100.00;159246.94;6210937;23;19911;-72
2023/09/06 11:14:29;;;;;;;4.20;3.40;;;;;;;30.76;100.00;159285.09;6210286;23;20051;-71
2023/09/06 11:16:55;;;;;;;8.77;2.60;;;;;;;30.55;100.00;159229.84;6212076;23;20005;-72
2023/09/06 11:19:29;;;;;;;;;;;;;;;30.41;100.00;159194.38;6184707;23;20008;-71
2023/09/06 11:22:10;;;;;;;5.22;2.60;;;;;;;30.57;100.00;159236.41;6185045;23;20267;-72
2023/09/06 11:24:36;;;;;;;10.50;2.92;;;;;;;30.83;100.00;159303.53;6210793;23;20008;-72
2023/09/06 11:27:15;;;;;;;;;;;;;;;30.74;100.00;159281.13;6211556;23;20423;-72
2023/09/06 11:29:40;;;;;;;5.03;2.92;;;;;;;30.67;100.00;159262.75;6211358;23;19904;-72
2023/09/06 11:32:11;;;;;;;7.78;2.40;;;;;;;30.84;100.00;159307.41;6211731;23;20020;-73
2023/09/06 11:34:46;;;;;;;7.97;2.85;;;;;;;30.80;100.00;159295.63;6210237;23;20206;-72
2023/09/06 11:37:15;;;;;;;6.57;2.70;;;;;;;30.63;100.00;159252.19;6211914;23;20000;-72
2023/09/06 11:39:45;;;;;;;9.50;3.20;;;;;;;30.82;100.00;159302.19;6209604;23;20514;-72
2023/09/06 11:42:16;;;;;;;8.25;2.67;;;;;;;30.96;100.00;159337.66;6211744;23;20004;-72
2023/09/06 11:44:47;;;;;;;3.17;2.40;;;;;;;30.98;100.00;159342.91;6185085;23;20066;-72
2023/09/06 11:47:17;;;;;;;5.47;2.35;;;;;;;31.16;100.00;159390.25;6212086;23;20083;-73
2023/09/06 11:49:45;;;;;;;6.72;2.35;;;;;;;31.33;100.00;159434.97;6211271;23;20043;-73
2023/09/06 11:52:15;;;;;;;6.78;2.10;;;;;;;31.37;100.00;159445.50;6209329;23;20497;-72
2023/09/06 11:54:43;;;;;;;7.53;2.90;;;;;;;31.39;100.00;159452.06;6183781;23;20070;-71
2023/09/06 11:57:22;;;;;;;5.03;2.20;;;;;;;31.53;100.00;159488.84;6211006;23;20008;-71
2023/09/06 11:59:52;;;;;;;5.07;2.00;;;;;;;31.66;100.00;159521.72;6185062;23;20004;-71
2023/09/06 12:02:20;;;;;;;5.80;3.20;;;;;;;31.64;100.00;159516.47;6211704;23;20030;-72
2023/09/06 12:04:57;;;;;;;7.97;2.40;;;;;;;31.94;100.00;159595.38;6212134;23;20001;-72
2023/09/06 12:07:23;;;;;;;4.32;2.33;;;;;;;32.19;100.00;159661.13;6211220;23;20473;-72
2023/09/06 12:09:49;;;;;;;5.60;2.13;;;;;;;32.05;100.00;159624.31;6211614;23;20082;-71
2023/09/06 12:12:17;;;;;;;5.43;2.22;;;;;;;31.65;100.00;159520.44;6211818;23;20004;-70
2023/09/06 12:14:44;;;;;;;4.72;2.38;;;;;;;31.85;100.00;159571.75;6184915;23;20012;-72
2023/09/06 12:17:11;;;;;;;5.13;2.40;;;;;;;32.05;100.00;159624.31;6211769;23;20005;-71
2023/09/06 12:19:36;;;;;;;10.00;2.20;;;;;;;32.17;100.00;159655.91;6211173;23;20079;-71
2023/09/06 12:22:02;;;;;;;;;;;;;;;32.06;100.00;159626.97;6211703;23;20383;-71
2023/09/06 12:24:27;;;;;;;6.53;2.55;;;;;;;32.10;100.00;159637.44;6211573;23;19907;-72
2023/09/06 12:26:52;;;;;;;8.55;2.25;;;;;;;32.02;100.00;159616.44;6211744;23;20008;-71
2023/09/06 12:29:18;;;;;;;;;;;;;;;32.17;100.00;159655.91;6211632;23;20051;-72
2023/09/06 12:31:43;;;;;;;7.32;2.03;;;;;;;32.33;100.00;159698.03;6210581;23;20353;-72
2023/09/06 12:34:08;;;;;;;;;;;;;;;32.38;100.00;159712.47;6210946;23;20008;-72
2023/09/06 12:36:34;;;;;;;8.23;2.10;;;;;;;32.44;100.00;159728.25;6211321;23;19908;-71
2023/09/06 12:38:59;;;;;;;3.10;1.95;;;;;;;32.33;100.00;159698.03;6212912;23;20393;-72
2023/09/06 12:41:24;;;;;;;10.38;1.90;;;;;;;32.31;100.00;159692.75;6211644;23;20004;-72
2023/09/06 12:43:53;;;;;;;9.65;2.22;;;;;;;32.25;100.00;159676.91;6186088;23;20012;-72
2023/09/06 12:46:21;;;;;;;3.65;2.35;;;;;;;32.13;100.00;159646.69;6210695;23;20083;-72
2023/09/06 12:48:46;;;;;;;3.65;2.50;;;;;;;31.84;100.00;159570.41;6212661;23;20015;-72
2023/09/06 12:51:12;;;;;;;;;;;;;;;32.12;100.00;159642.75;6213247;23;20107;-72
2023/09/06 12:53:37;;;;;;;3.85;1.85;;;;;;;32.18;100.00;159658.53;6211625;23;19908;-71
2023/09/06 12:56:03;;;;;;;;;;;;;;;32.12;100.00;159644.03;6212968;23;20062;-71
2023/09/06 12:58:28;;;;;;;5.28;1.90;;;;;;;32.09;100.00;159634.84;6210712;23;20330;-72
2023/09/06 13:00:54;;;;;;;;;;;;;;;32.27;100.00;159682.25;6185879;23;20439;-72
2023/09/06 13:03:19;;;;;;;6.45;2.22;;;;;;;32.21;100.00;159666.38;6210341;23;19986;-71
2023/09/06 13:05:48;;;;;;;;;;;;;;;32.06;100.00;159626.97;6213416;23;20005;-72
2023/09/06 13:08:14;;;;;;;6.55;1.80;;;;;;;32.02;100.00;159617.72;6211900;23;19935;-71
2023/09/06 13:10:39;;;;;;;;;;;;;;;32.04;100.00;159621.69;6213446;23;20043;-71
2023/09/06 13:13:04;;;;;;;4.50;2.10;;;;;;;32.05;100.00;159624.31;6213902;23;19908;-72